Huvudsida
METAR-TAF:

METAR-TAF

Flygplatser :

Izmir, Turkiet

latitud: 38-30N, longitud: 027-01E, höjd: 5 m

Aktuellt väderrapport

Denna rapport gjordes för 15 timmar och 11 minuter sedan, klockan 09:44 UTC
Vind 10 kt från väst
Temperatur 29°C
Fuktighet 45%
Tryck 1006 hPa
Sikt 10 km eller mer
Få moln på en höjd av 4000 ft
Spridda moln på en höjd av 20000 ft

METAR: LTBL 160944Z 27010KT 9999 FEW040 SCT200 29/16 Q1006 NOSIG RMK RWY17 36010KT 290V030

Tid: 03:55 (00:55 UTC)

Väderprognos

Denna rapport gjordes för 2 timmar och 15 minuter sedan, klockan 22:40 UTC
Prognos gäller från 17 kl. 00 UTC till 17 kl. 09 UTC
Vind 2 kt varierande vindriktning
Sikt 10 km eller mer
Få moln på en höjd av 4000 ft
Spridda moln på en höjd av 20000 ft
Sannolikhet 30% :
Temporärt
från 17 kl. 07 UTC till 17 kl. 09 UTC
Brutna moln på en höjd av 3500 ft
lätta regnskurar

TAF: LTBL 162240Z 1700/1709 VRB02KT 9999 FEW040 SCT200 PROB30 TEMPO 1707/1709 -SHRA BKN035

Aktuella väderrapporter och prognoser från 4000 flygplatser (METAR- och TAF-rapporter).

De tillgängliga stationerna syns som gula och röda prickar på kartan.

För musen över prickarna för att se namnen på stationerna.

Klicka sedan för att få väderrapporter och prognoser.

För att ändra kartan: Klicka på de gröna knapparna med ett svart kors på för att zooma in; den gröna knappen med ett streck på för att zooma ut; eller på de gröna pilarna för angränsande kartor.


METAR-TAF: